sensor_id;sensor_type;location;lat;lon;timestamp;pressure;altitude;pressure_sealevel;temperature;humidity
63343;BME280;49465;57.664;39.686;2023-02-01T00:01:08;98935.47;;;3.53;62.15
63343;BME280;49465;57.664;39.686;2023-02-01T00:03:34;98931.81;;;3.41;61.87
63343;BME280;49465;57.664;39.686;2023-02-01T00:06:01;98937.09;;;3.40;62.20
63343;BME280;49465;57.664;39.686;2023-02-01T00:08:28;98931.81;;;3.41;62.07
63343;BME280;49465;57.664;39.686;2023-02-01T00:11:02;98945.91;;;3.51;62.39
63343;BME280;49465;57.664;39.686;2023-02-01T00:13:33;98932.56;;;3.43;62.38
63343;BME280;49465;57.664;39.686;2023-02-01T00:16:11;98940.91;;;3.48;61.82
63343;BME280;49465;57.664;39.686;2023-02-01T00:18:42;98946.50;;;3.41;62.06
63343;BME280;49465;57.664;39.686;2023-02-01T00:21:11;98946.81;;;3.50;62.49
63343;BME280;49465;57.664;39.686;2023-02-01T00:23:40;98940.44;;;3.42;61.93
63343;BME280;49465;57.664;39.686;2023-02-01T00:26:18;98947.03;;;3.47;62.58
63343;BME280;49465;57.664;39.686;2023-02-01T00:28:46;98943.69;;;3.45;61.89
63343;BME280;49465;57.664;39.686;2023-02-01T00:31:15;98947.38;;;3.41;62.46
63343;BME280;49465;57.664;39.686;2023-02-01T00:33:46;98954.28;;;3.41;61.99
63343;BME280;49465;57.664;39.686;2023-02-01T00:36:12;98957.91;;;3.38;62.21
63343;BME280;49465;57.664;39.686;2023-02-01T00:38:41;98962.13;;;3.39;62.10
63343;BME280;49465;57.664;39.686;2023-02-01T00:41:15;98957.75;;;3.41;62.44
63343;BME280;49465;57.664;39.686;2023-02-01T00:43:48;98949.97;;;3.41;61.83
63343;BME280;49465;57.664;39.686;2023-02-01T00:46:18;98955.16;;;3.41;61.82
63343;BME280;49465;57.664;39.686;2023-02-01T00:48:48;98963.91;;;3.39;61.64
63343;BME280;49465;57.664;39.686;2023-02-01T00:51:20;98966.25;;;3.43;61.75
63343;BME280;49465;57.664;39.686;2023-02-01T00:53:47;98959.47;;;3.41;61.68
63343;BME280;49465;57.664;39.686;2023-02-01T00:56:14;98964.72;;;3.39;61.53
63343;BME280;49465;57.664;39.686;2023-02-01T00:58:41;98969.91;;;3.39;61.02
63343;BME280;49465;57.664;39.686;2023-02-01T01:01:14;98970.66;;;3.57;60.67
63343;BME280;49465;57.664;39.686;2023-02-01T01:03:48;98978.09;;;3.63;61.24
63343;BME280;49465;57.664;39.686;2023-02-01T01:06:20;98979.84;;;3.47;60.77
63343;BME280;49465;57.664;39.686;2023-02-01T01:08:50;98975.88;;;3.41;60.65
63343;BME280;49465;57.664;39.686;2023-02-01T01:11:22;98978.47;;;3.41;60.95
63343;BME280;49465;57.664;39.686;2023-02-01T01:13:50;98982.72;;;3.42;60.94
63343;BME280;49465;57.664;39.686;2023-02-01T01:16:22;98979.53;;;3.37;61.69
63343;BME280;49465;57.664;39.686;2023-02-01T01:18:49;98974.47;;;3.35;61.60
63343;BME280;49465;57.664;39.686;2023-02-01T01:21:17;98980.38;;;3.38;62.09
63343;BME280;49465;57.664;39.686;2023-02-01T01:23:55;98979.44;;;3.39;61.45
63343;BME280;49465;57.664;39.686;2023-02-01T01:26:25;98987.06;;;3.42;61.64
63343;BME280;49465;57.664;39.686;2023-02-01T01:28:52;98988.31;;;3.34;61.78
63343;BME280;49465;57.664;39.686;2023-02-01T01:31:23;98990.06;;;3.34;61.64
63343;BME280;49465;57.664;39.686;2023-02-01T01:33:53;98995.81;;;3.39;62.37
63343;BME280;49465;57.664;39.686;2023-02-01T01:36:28;98994.31;;;3.35;61.79
63343;BME280;49465;57.664;39.686;2023-02-01T01:38:54;98994.50;;;3.32;62.18
63343;BME280;49465;57.664;39.686;2023-02-01T01:41:28;99003.53;;;3.41;62.50
63343;BME280;49465;57.664;39.686;2023-02-01T01:43:59;99002.09;;;3.35;61.81
63343;BME280;49465;57.664;39.686;2023-02-01T01:46:28;99009.78;;;3.36;62.40
63343;BME280;49465;57.664;39.686;2023-02-01T01:49:20;99013.75;;;3.74;61.51
63343;BME280;49465;57.664;39.686;2023-02-01T01:51:56;99021.75;;;3.55;62.10
63343;BME280;49465;57.664;39.686;2023-02-01T01:54:44;99016.75;;;3.82;61.91
63343;BME280;49465;57.664;39.686;2023-02-01T01:57:23;99015.56;;;3.58;61.73
63343;BME280;49465;57.664;39.686;2023-02-01T02:00:07;99024.06;;;3.60;62.85
63343;BME280;49465;57.664;39.686;2023-02-01T02:02:38;99025.25;;;3.38;61.83
63343;BME280;49465;57.664;39.686;2023-02-01T02:05:05;99018.72;;;3.31;61.54
63343;BME280;49465;57.664;39.686;2023-02-01T02:07:40;99022.94;;;3.49;62.27
63343;BME280;49465;57.664;39.686;2023-02-01T02:10:10;99028.75;;;3.37;61.71
63343;BME280;49465;57.664;39.686;2023-02-01T02:12:40;99024.78;;;3.31;62.31
63343;BME280;49465;57.664;39.686;2023-02-01T02:15:12;99023.84;;;3.32;62.38
63343;BME280;49465;57.664;39.686;2023-02-01T02:20:45;99027.81;;;3.70;61.49
63343;BME280;49465;57.664;39.686;2023-02-01T02:34:57;99038.03;;;3.25;61.16
63343;BME280;49465;57.664;39.686;2023-02-01T02:37:42;99049.41;;;3.54;61.02
63343;BME280;49465;57.664;39.686;2023-02-01T02:40:29;99050.22;;;4.17;59.23
63343;BME280;49465;57.664;39.686;2023-02-01T02:45:53;99048.44;;;3.41;60.14
63343;BME280;49465;57.664;39.686;2023-02-01T02:48:54;99055.19;;;3.60;60.04
63343;BME280;49465;57.664;39.686;2023-02-01T02:54:32;99060.94;;;3.33;60.39
63343;BME280;49465;57.664;39.686;2023-02-01T02:57:19;99061.78;;;3.17;60.29
63343;BME280;49465;57.664;39.686;2023-02-01T03:00:14;99068.28;;;3.25;60.52
63343;BME280;49465;57.664;39.686;2023-02-01T03:03:02;99063.44;;;3.19;60.12
63343;BME280;49465;57.664;39.686;2023-02-01T03:05:50;99078.16;;;3.18;60.30
63343;BME280;49465;57.664;39.686;2023-02-01T03:08:23;99077.75;;;3.10;60.40
63343;BME280;49465;57.664;39.686;2023-02-01T03:11:02;99090.88;;;3.39;60.24
63343;BME280;49465;57.664;39.686;2023-02-01T03:16:22;99079.75;;;3.21;60.90
63343;BME280;49465;57.664;39.686;2023-02-01T03:19:06;99080.69;;;3.35;60.70
63343;BME280;49465;57.664;39.686;2023-02-01T03:21:50;99082.81;;;3.27;60.73
63343;BME280;49465;57.664;39.686;2023-02-01T03:27:19;99085.53;;;3.26;60.89
63343;BME280;49465;57.664;39.686;2023-02-01T03:32:18;99077.38;;;3.00;61.08
63343;BME280;49465;57.664;39.686;2023-02-01T03:34:47;99086.31;;;2.94;61.42
63343;BME280;49465;57.664;39.686;2023-02-01T03:37:26;99083.00;;;3.08;60.70
63343;BME280;49465;57.664;39.686;2023-02-01T03:40:00;99089.28;;;3.20;61.38
63343;BME280;49465;57.664;39.686;2023-02-01T03:42:44;99093.38;;;3.24;61.26
63343;BME280;49465;57.664;39.686;2023-02-01T03:45:33;99094.81;;;3.30;61.01
63343;BME280;49465;57.664;39.686;2023-02-01T03:48:03;99094.50;;;3.03;61.18
63343;BME280;49465;57.664;39.686;2023-02-01T03:50:35;99095.34;;;3.03;60.95
63343;BME280;49465;57.664;39.686;2023-02-01T03:53:09;99099.97;;;3.14;60.87
63343;BME280;49465;57.664;39.686;2023-02-01T03:55:40;99107.03;;;2.94;60.46
63343;BME280;49465;57.664;39.686;2023-02-01T03:58:16;99115.22;;;3.03;60.93
63343;BME280;49465;57.664;39.686;2023-02-01T04:00:57;99117.53;;;3.41;60.24
63343;BME280;49465;57.664;39.686;2023-02-01T04:03:27;99114.75;;;3.12;60.06
63343;BME280;49465;57.664;39.686;2023-02-01T04:05:54;99120.59;;;3.15;59.82
63343;BME280;49465;57.664;39.686;2023-02-01T04:08:24;99123.28;;;3.14;60.00
63343;BME280;49465;57.664;39.686;2023-02-01T04:10:53;99126.78;;;3.13;60.62
63343;BME280;49465;57.664;39.686;2023-02-01T04:13:19;99132.88;;;3.12;59.93
63343;BME280;49465;57.664;39.686;2023-02-01T04:15:49;99136.13;;;3.15;60.63
63343;BME280;49465;57.664;39.686;2023-02-01T04:18:18;99131.13;;;3.12;60.26
63343;BME280;49465;57.664;39.686;2023-02-01T04:20:45;99134.72;;;3.10;59.90
63343;BME280;49465;57.664;39.686;2023-02-01T04:23:13;99136.44;;;3.09;59.90
63343;BME280;49465;57.664;39.686;2023-02-01T04:25:41;99142.50;;;3.10;60.41
63343;BME280;49465;57.664;39.686;2023-02-01T04:28:08;99146.81;;;3.09;60.09
63343;BME280;49465;57.664;39.686;2023-02-01T04:30:35;99150.25;;;3.10;60.41
63343;BME280;49465;57.664;39.686;2023-02-01T04:33:04;99152.09;;;3.08;60.29
63343;BME280;49465;57.664;39.686;2023-02-01T04:35:43;99155.50;;;3.08;60.75
63343;BME280;49465;57.664;39.686;2023-02-01T04:38:11;99158.16;;;3.07;60.43
63343;BME280;49465;57.664;39.686;2023-02-01T04:40:45;99158.25;;;3.05;60.26
63343;BME280;49465;57.664;39.686;2023-02-01T04:43:14;99165.94;;;3.07;60.45
63343;BME280;49465;57.664;39.686;2023-02-01T04:45:45;99169.44;;;3.06;60.55
63343;BME280;49465;57.664;39.686;2023-02-01T04:48:15;99169.16;;;4.09;58.18
63343;BME280;49465;57.664;39.686;2023-02-01T04:50:42;99169.50;;;3.22;60.21
63343;BME280;49465;57.664;39.686;2023-02-01T04:53:11;99177.88;;;3.09;60.56
63343;BME280;49465;57.664;39.686;2023-02-01T04:55:37;99178.13;;;3.05;60.75
63343;BME280;49465;57.664;39.686;2023-02-01T04:58:03;99185.06;;;3.04;60.17
63343;BME280;49465;57.664;39.686;2023-02-01T05:00:30;99185.06;;;3.04;60.90
63343;BME280;49465;57.664;39.686;2023-02-01T05:02:58;99188.56;;;3.03;60.31
63343;BME280;49465;57.664;39.686;2023-02-01T05:05:28;99186.91;;;3.02;61.15
63343;BME280;49465;57.664;39.686;2023-02-01T05:07:55;99197.25;;;3.02;61.02
63343;BME280;49465;57.664;39.686;2023-02-01T05:10:24;99204.41;;;3.14;61.35
63343;BME280;49465;57.664;39.686;2023-02-01T05:12:51;99199.00;;;3.02;61.24
63343;BME280;49465;57.664;39.686;2023-02-01T05:15:35;99200.69;;;3.03;61.23
63343;BME280;49465;57.664;39.686;2023-02-01T05:18:05;99202.50;;;3.01;61.74
63343;BME280;49465;57.664;39.686;2023-02-01T05:20:31;99205.94;;;3.01;60.86
63343;BME280;49465;57.664;39.686;2023-02-01T05:23:00;99208.53;;;3.01;61.02
63343;BME280;49465;57.664;39.686;2023-02-01T05:25:27;99205.94;;;3.01;60.91
63343;BME280;49465;57.664;39.686;2023-02-01T05:27:59;99218.19;;;3.15;61.41
63343;BME280;49465;57.664;39.686;2023-02-01T05:30:25;99212.81;;;3.02;61.53
63343;BME280;49465;57.664;39.686;2023-02-01T05:32:54;99213.00;;;3.15;61.32
63343;BME280;49465;57.664;39.686;2023-02-01T05:35:21;99217.13;;;3.02;61.45
63343;BME280;49465;57.664;39.686;2023-02-01T05:37:47;99219.72;;;3.02;60.93
63343;BME280;49465;57.664;39.686;2023-02-01T05:40:19;99223.44;;;3.13;61.38
63343;BME280;49465;57.664;39.686;2023-02-01T05:42:48;99218.88;;;3.01;61.65
63343;BME280;49465;57.664;39.686;2023-02-01T05:45:17;99226.78;;;3.15;61.72
63343;BME280;49465;57.664;39.686;2023-02-01T05:47:49;99225.88;;;3.16;61.87
63343;BME280;49465;57.664;39.686;2023-02-01T05:50:17;99229.88;;;3.06;61.55
63343;BME280;49465;57.664;39.686;2023-02-01T05:52:45;99230.06;;;3.02;61.64
63343;BME280;49465;57.664;39.686;2023-02-01T05:55:12;99233.53;;;3.02;61.27
63343;BME280;49465;57.664;39.686;2023-02-01T05:57:41;99236.38;;;3.13;61.49
63343;BME280;49465;57.664;39.686;2023-02-01T06:00:11;99233.53;;;3.02;61.46
63343;BME280;49465;57.664;39.686;2023-02-01T06:02:43;99237.25;;;3.14;61.42
63343;BME280;49465;57.664;39.686;2023-02-01T06:05:09;99237.00;;;3.01;61.49
63343;BME280;49465;57.664;39.686;2023-02-01T06:07:44;99251.94;;;3.13;61.31
63343;BME280;49465;57.664;39.686;2023-02-01T06:10:10;99252.47;;;3.03;61.74
63343;BME280;49465;57.664;39.686;2023-02-01T06:12:40;99246.47;;;3.02;62.04
63343;BME280;49465;57.664;39.686;2023-02-01T06:15:14;99247.81;;;3.09;61.85
63343;BME280;49465;57.664;39.686;2023-02-01T06:17:45;99250.59;;;3.06;61.05
63343;BME280;49465;57.664;39.686;2023-02-01T06:20:20;99256.97;;;3.16;61.18
63343;BME280;49465;57.664;39.686;2023-02-01T06:22:47;99255.97;;;3.02;61.30
63343;BME280;49465;57.664;39.686;2023-02-01T06:25:13;99264.59;;;3.02;61.40
63343;BME280;49465;57.664;39.686;2023-02-01T06:27:40;99267.19;;;3.02;61.87
63343;BME280;49465;57.664;39.686;2023-02-01T06:30:10;99271.44;;;3.03;62.09
63343;BME280;49465;57.664;39.686;2023-02-01T06:32:39;99274.28;;;3.16;61.96
63343;BME280;49465;57.664;39.686;2023-02-01T06:35:16;99266.31;;;3.36;62.66
63343;BME280;49465;57.664;39.686;2023-02-01T06:37:51;99271.75;;;3.32;62.36
63343;BME280;49465;57.664;39.686;2023-02-01T06:40:21;99267.94;;;3.04;61.75
63343;BME280;49465;57.664;39.686;2023-02-01T06:42:48;99268.63;;;3.08;61.96
63343;BME280;49465;57.664;39.686;2023-02-01T06:45:15;99270.75;;;3.00;62.38
63343;BME280;49465;57.664;39.686;2023-02-01T06:47:54;99269.84;;;3.18;62.07
63343;BME280;49465;57.664;39.686;2023-02-01T06:50:20;99268.91;;;3.02;61.88
63343;BME280;49465;57.664;39.686;2023-02-01T06:52:52;99275.16;;;3.15;62.00
63343;BME280;49465;57.664;39.686;2023-02-01T06:55:19;99276.56;;;3.05;61.58
63343;BME280;49465;57.664;39.686;2023-02-01T06:57:45;99278.31;;;3.04;61.93
63343;BME280;49465;57.664;39.686;2023-02-01T07:00:14;99281.88;;;3.19;62.40
63343;BME280;49465;57.664;39.686;2023-02-01T07:02:44;99280.72;;;3.07;62.34
63343;BME280;49465;57.664;39.686;2023-02-01T07:05:16;99284.09;;;3.09;62.09
63343;BME280;49465;57.664;39.686;2023-02-01T07:07:47;99282.56;;;3.23;62.12
63343;BME280;49465;57.664;39.686;2023-02-01T07:10:22;99293.47;;;3.29;61.06
63343;BME280;49465;57.664;39.686;2023-02-01T07:13:12;99295.31;;;3.61;61.47
63343;BME280;49465;57.664;39.686;2023-02-01T07:15:46;99295.91;;;3.15;61.25
63343;BME280;49465;57.664;39.686;2023-02-01T07:18:20;99295.22;;;3.29;60.99
63343;BME280;49465;57.664;39.686;2023-02-01T07:20:50;99296.59;;;3.36;61.07
63343;BME280;49465;57.664;39.686;2023-02-01T07:23:17;99294.06;;;3.17;60.83
63343;BME280;49465;57.664;39.686;2023-02-01T07:25:45;99295.81;;;3.16;60.47
63343;BME280;49465;57.664;39.686;2023-02-01T07:28:19;99301.31;;;3.28;61.17
63343;BME280;49465;57.664;39.686;2023-02-01T07:30:48;99300.88;;;3.20;61.13
63343;BME280;49465;57.664;39.686;2023-02-01T07:33:25;99304.41;;;3.52;60.54
63343;BME280;49465;57.664;39.686;2023-02-01T07:35:54;99298.09;;;3.23;60.79
63343;BME280;49465;57.664;39.686;2023-02-01T07:38:20;99304.97;;;3.24;61.01
63343;BME280;49465;57.664;39.686;2023-02-01T07:40:50;99309.22;;;3.25;60.78
63343;BME280;49465;57.664;39.686;2023-02-01T07:43:22;99310.16;;;3.41;61.58
63343;BME280;49465;57.664;39.686;2023-02-01T07:45:52;99311.69;;;3.45;61.72
63343;BME280;49465;57.664;39.686;2023-02-01T07:48:20;99310.59;;;3.32;61.23
63343;BME280;49465;57.664;39.686;2023-02-01T07:51:01;99316.66;;;3.66;61.92
63343;BME280;49465;57.664;39.686;2023-02-01T07:53:34;99315.34;;;3.41;61.43
63343;BME280;49465;57.664;39.686;2023-02-01T07:56:15;99312.16;;;3.69;61.25
63343;BME280;49465;57.664;39.686;2023-02-01T07:58:43;99311.81;;;3.42;61.59
63343;BME280;49465;57.664;39.686;2023-02-01T08:01:20;99312.16;;;3.69;61.90
63343;BME280;49465;57.664;39.686;2023-02-01T08:03:57;99311.41;;;3.67;62.33
63343;BME280;49465;57.664;39.686;2023-02-01T08:06:31;99304.72;;;3.46;62.14
63343;BME280;49465;57.664;39.686;2023-02-01T08:09:04;99310.03;;;3.60;62.06
63343;BME280;49465;57.664;39.686;2023-02-01T08:11:34;99309.06;;;3.63;61.70
63343;BME280;49465;57.664;39.686;2023-02-01T08:14:04;99308.91;;;3.48;61.58
63343;BME280;49465;57.664;39.686;2023-02-01T08:16:39;99304.69;;;3.81;61.97
63343;BME280;49465;57.664;39.686;2023-02-01T08:19:05;99301.44;;;3.60;61.76
63343;BME280;49465;57.664;39.686;2023-02-01T08:21:37;99310.94;;;3.76;61.86
63343;BME280;49465;57.664;39.686;2023-02-01T08:24:07;99312.31;;;3.66;61.16
63343;BME280;49465;57.664;39.686;2023-02-01T08:26:40;99307.06;;;3.68;61.16
63343;BME280;49465;57.664;39.686;2023-02-01T08:29:08;99315.38;;;3.74;61.64
63343;BME280;49465;57.664;39.686;2023-02-01T08:31:35;99319.69;;;3.74;61.14
63343;BME280;49465;57.664;39.686;2023-02-01T08:34:02;99323.03;;;3.76;61.62
63343;BME280;49465;57.664;39.686;2023-02-01T08:36:34;99327.34;;;3.77;61.71
63343;BME280;49465;57.664;39.686;2023-02-01T08:39:01;99326.25;;;3.81;61.44
63343;BME280;49465;57.664;39.686;2023-02-01T08:41:33;99324.50;;;3.82;61.83
63343;BME280;49465;57.664;39.686;2023-02-01T08:44:02;99338.34;;;3.98;61.12
63343;BME280;49465;57.664;39.686;2023-02-01T08:46:29;99331.88;;;3.89;61.37
63343;BME280;49465;57.664;39.686;2023-02-01T08:48:56;99327.63;;;3.88;60.98
63343;BME280;49465;57.664;39.686;2023-02-01T08:51:25;99333.31;;;3.95;60.74
63343;BME280;49465;57.664;39.686;2023-02-01T08:53:51;99331.47;;;3.97;61.41
63343;BME280;49465;57.664;39.686;2023-02-01T08:56:23;99329.63;;;3.99;61.13
63343;BME280;49465;57.664;39.686;2023-02-01T08:58:51;99332.91;;;4.03;61.24
63343;BME280;49465;57.664;39.686;2023-02-01T09:01:18;99332.09;;;4.02;60.69
63343;BME280;49465;57.664;39.686;2023-02-01T09:03:44;99332.84;;;4.04;61.48
63343;BME280;49465;57.664;39.686;2023-02-01T09:06:13;99337.78;;;4.09;60.95
63343;BME280;49465;57.664;39.686;2023-02-01T09:08:42;99335.19;;;4.09;61.09
63343;BME280;49465;57.664;39.686;2023-02-01T09:11:14;99335.19;;;4.25;60.86
63343;BME280;49465;57.664;39.686;2023-02-01T09:13:40;99331.69;;;4.10;60.33
63343;BME280;49465;57.664;39.686;2023-02-01T09:16:08;99334.84;;;4.15;60.50
63343;BME280;49465;57.664;39.686;2023-02-01T09:18:37;99333.88;;;4.18;60.36
63343;BME280;49465;57.664;39.686;2023-02-01T09:21:10;99336.81;;;4.43;61.11
63343;BME280;49465;57.664;39.686;2023-02-01T09:23:38;99344.75;;;4.24;60.06
63343;BME280;49465;57.664;39.686;2023-02-01T09:26:05;99341.22;;;4.25;60.30
63343;BME280;49465;57.664;39.686;2023-02-01T09:28:36;99340.31;;;4.26;60.48
63343;BME280;49465;57.664;39.686;2023-02-01T09:31:02;99341.91;;;4.29;60.09
63343;BME280;49465;57.664;39.686;2023-02-01T09:33:29;99346.94;;;4.32;60.41
63343;BME280;49465;57.664;39.686;2023-02-01T09:36:00;99343.19;;;4.38;60.67
63343;BME280;49465;57.664;39.686;2023-02-01T09:38:28;99343.84;;;4.41;60.54
63343;BME280;49465;57.664;39.686;2023-02-01T09:40:58;99340.59;;;4.53;59.68
63343;BME280;49465;57.664;39.686;2023-02-01T09:43:53;99344.59;;;4.91;59.59
63343;BME280;49465;57.664;39.686;2023-02-01T09:46:31;99348.28;;;4.71;59.65
63343;BME280;49465;57.664;39.686;2023-02-01T09:49:08;99344.69;;;4.58;59.48
63343;BME280;49465;57.664;39.686;2023-02-01T09:51:44;99351.03;;;4.68;60.06
63343;BME280;49465;57.664;39.686;2023-02-01T09:54:17;99355.81;;;4.75;59.44
63343;BME280;49465;57.664;39.686;2023-02-01T09:56:55;99364.44;;;4.92;59.56
63343;BME280;49465;57.664;39.686;2023-02-01T09:59:41;99349.78;;;4.91;59.45
63343;BME280;49465;57.664;39.686;2023-02-01T10:02:25;99361.34;;;4.85;59.33
63343;BME280;49465;57.664;39.686;2023-02-01T10:04:58;99356.84;;;4.73;59.74
63343;BME280;49465;57.664;39.686;2023-02-01T10:10:30;99363.22;;;5.13;58.73
63343;BME280;49465;57.664;39.686;2023-02-01T10:16:31;99370.78;;;5.18;59.16
63343;BME280;49465;57.664;39.686;2023-02-01T10:19:27;99360.63;;;5.29;59.22
63343;BME280;49465;57.664;39.686;2023-02-01T10:21:58;99364.53;;;4.90;59.52
63343;BME280;49465;57.664;39.686;2023-02-01T10:24:42;99365.38;;;4.91;59.30
63343;BME280;49465;57.664;39.686;2023-02-01T10:27:20;99361.59;;;4.81;58.71
63343;BME280;49465;57.664;39.686;2023-02-01T10:29:56;99362.66;;;5.08;58.95
63343;BME280;49465;57.664;39.686;2023-02-01T10:32:33;99369.94;;;5.02;58.80
63343;BME280;49465;57.664;39.686;2023-02-01T10:37:44;99355.13;;;4.88;58.87
63343;BME280;49465;57.664;39.686;2023-02-01T10:40:19;99363.69;;;5.06;58.98
63343;BME280;49465;57.664;39.686;2023-02-01T10:42:57;99361.81;;;4.92;58.25
63343;BME280;49465;57.664;39.686;2023-02-01T10:45:29;99362.69;;;4.92;58.89
63343;BME280;49465;57.664;39.686;2023-02-01T10:47:59;99367.63;;;4.97;58.59
63343;BME280;49465;57.664;39.686;2023-02-01T10:50:34;99368.28;;;5.01;58.04
63343;BME280;49465;57.664;39.686;2023-02-01T10:53:17;99364.66;;;5.03;58.50
63343;BME280;49465;57.664;39.686;2023-02-01T10:55:56;99358.28;;;5.09;58.21
63343;BME280;49465;57.664;39.686;2023-02-01T10:58:32;99366.00;;;5.10;58.30
63343;BME280;49465;57.664;39.686;2023-02-01T11:01:02;99367.69;;;4.95;58.02
63343;BME280;49465;57.664;39.686;2023-02-01T11:04:05;99370.78;;;5.48;57.78
63343;BME280;49465;57.664;39.686;2023-02-01T11:06:40;99364.66;;;5.03;58.09
63343;BME280;49465;57.664;39.686;2023-02-01T11:11:53;99368.22;;;4.86;58.91
63343;BME280;49465;57.664;39.686;2023-02-01T11:14:26;99364.63;;;4.89;58.99
63343;BME280;49465;57.664;39.686;2023-02-01T11:16:56;99367.88;;;4.92;58.95
63343;BME280;49465;57.664;39.686;2023-02-01T11:19:23;99369.22;;;4.84;59.30
63343;BME280;49465;57.664;39.686;2023-02-01T11:22:01;99365.78;;;4.99;59.13
63343;BME280;49465;57.664;39.686;2023-02-01T11:24:44;99358.81;;;5.15;58.46
63343;BME280;49465;57.664;39.686;2023-02-01T11:27:20;99364.31;;;5.09;58.70
63343;BME280;49465;57.664;39.686;2023-02-01T11:29:51;99377.41;;;4.92;59.06
63343;BME280;49465;57.664;39.686;2023-02-01T11:32:22;99378.84;;;4.82;59.05
63343;BME280;49465;57.664;39.686;2023-02-01T11:35:02;99373.38;;;5.18;58.94
63343;BME280;49465;57.664;39.686;2023-02-01T11:37:38;99376.16;;;4.99;58.26
63343;BME280;49465;57.664;39.686;2023-02-01T11:43:07;99381.25;;;5.17;58.11
63343;BME280;49465;57.664;39.686;2023-02-01T11:45:39;99378.94;;;4.96;57.92
63343;BME280;49465;57.664;39.686;2023-02-01T11:48:15;99374.56;;;5.12;58.74
63343;BME280;49465;57.664;39.686;2023-02-01T11:56:57;99393.91;;;5.07;58.08
63343;BME280;49465;57.664;39.686;2023-02-01T12:02:02;99391.91;;;4.80;57.77
63343;BME280;49465;57.664;39.686;2023-02-01T12:22:00;99413.69;;;5.09;58.05
63343;BME280;49465;57.664;39.686;2023-02-01T12:27:55;99419.50;;;4.83;57.54
63343;BME280;49465;57.664;39.686;2023-02-01T12:33:36;99426.69;;;5.09;57.50
63343;BME280;49465;57.664;39.686;2023-02-01T12:38:52;99423.34;;;5.07;57.36
63343;BME280;49465;57.664;39.686;2023-02-01T12:41:45;99425.09;;;5.23;57.33
63343;BME280;49465;57.664;39.686;2023-02-01T12:52:38;99426.94;;;5.21;57.59
63343;BME280;49465;57.664;39.686;2023-02-01T12:55:49;99419.25;;;4.71;58.15
63343;BME280;49465;57.664;39.686;2023-02-01T12:58:38;99418.81;;;4.95;57.39
63343;BME280;49465;57.664;39.686;2023-02-01T13:01:16;99422.84;;;5.01;57.08
63343;BME280;49465;57.664;39.686;2023-02-01T13:06:34;99416.97;;;4.81;57.70
63343;BME280;49465;57.664;39.686;2023-02-01T13:09:25;99425.38;;;5.02;58.32
63343;BME280;49465;57.664;39.686;2023-02-01T13:12:04;99430.88;;;4.80;57.92
63343;BME280;49465;57.664;39.686;2023-02-01T13:14:53;99420.81;;;4.90;58.39
63343;BME280;49465;57.664;39.686;2023-02-01T13:17:36;99421.50;;;4.93;57.74
63343;BME280;49465;57.664;39.686;2023-02-01T13:20:32;99422.84;;;5.01;57.39
63343;BME280;49465;57.664;39.686;2023-02-01T13:23:28;99424.84;;;4.95;57.49
63343;BME280;49465;57.664;39.686;2023-02-01T13:26:01;99426.88;;;4.74;58.29
63343;BME280;49465;57.664;39.686;2023-02-01T13:28:44;99433.25;;;4.69;58.41
63343;BME280;49465;57.664;39.686;2023-02-01T13:45:27;99438.75;;;4.63;58.62
63343;BME280;49465;57.664;39.686;2023-02-01T13:48:01;99440.75;;;4.58;57.77
63343;BME280;49465;57.664;39.686;2023-02-01T13:50:38;99445.53;;;4.65;57.83
63343;BME280;49465;57.664;39.686;2023-02-01T13:53:17;99430.22;;;4.61;57.72
63343;BME280;49465;57.664;39.686;2023-02-01T13:55:54;99429.66;;;4.38;58.15
63343;BME280;49465;57.664;39.686;2023-02-01T13:58:37;99432.28;;;4.54;58.20
63343;BME280;49465;57.664;39.686;2023-02-01T14:03:58;99433.97;;;4.55;57.72
63343;BME280;49465;57.664;39.686;2023-02-01T14:19:51;99455.19;;;4.63;57.96
63343;BME280;49465;57.664;39.686;2023-02-01T14:22:35;99452.38;;;4.50;57.99
63343;BME280;49465;57.664;39.686;2023-02-01T14:25:16;99462.22;;;4.61;58.06
63343;BME280;49465;57.664;39.686;2023-02-01T14:27:58;99472.03;;;4.39;57.81
63343;BME280;49465;57.664;39.686;2023-02-01T14:30:24;99470.25;;;4.06;57.96
63343;BME280;49465;57.664;39.686;2023-02-01T14:32:53;99464.13;;;4.07;58.03
63343;BME280;49465;57.664;39.686;2023-02-01T14:35:29;99466.81;;;4.39;58.69
63343;BME280;49465;57.664;39.686;2023-02-01T14:38:08;99469.00;;;4.30;58.62
63343;BME280;49465;57.664;39.686;2023-02-01T14:40:37;99463.53;;;4.02;58.42
63343;BME280;49465;57.664;39.686;2023-02-01T14:43:17;99474.56;;;4.23;58.21
63343;BME280;49465;57.664;39.686;2023-02-01T14:45:54;99473.50;;;4.27;58.06
63343;BME280;49465;57.664;39.686;2023-02-01T14:50:58;99484.56;;;4.13;58.14
63343;BME280;49465;57.664;39.686;2023-02-01T14:53:36;99467.19;;;4.15;58.81
63343;BME280;49465;57.664;39.686;2023-02-01T14:56:14;99472.91;;;4.22;57.84
63343;BME280;49465;57.664;39.686;2023-02-01T14:59:07;99471.94;;;4.40;57.68
63343;BME280;49465;57.664;39.686;2023-02-01T15:01:38;99466.13;;;4.02;58.25
63343;BME280;49465;57.664;39.686;2023-02-01T15:04:11;99468.44;;;4.08;58.21
63343;BME280;49465;57.664;39.686;2023-02-01T15:06:44;99470.09;;;4.09;58.01
63343;BME280;49465;57.664;39.686;2023-02-01T15:14:43;99482.91;;;3.94;58.15
63343;BME280;49465;57.664;39.686;2023-02-01T15:17:25;99471.84;;;4.08;58.19
63343;BME280;49465;57.664;39.686;2023-02-01T15:20:03;99472.75;;;4.07;57.58
63343;BME280;49465;57.664;39.686;2023-02-01T15:22:34;99483.38;;;3.85;57.77
63343;BME280;49465;57.664;39.686;2023-02-01T15:25:01;99481.09;;;3.79;57.86
63343;BME280;49465;57.664;39.686;2023-02-01T15:27:28;99485.44;;;3.79;58.14
63343;BME280;49465;57.664;39.686;2023-02-01T15:30:07;99488.09;;;4.12;58.02
63343;BME280;49465;57.664;39.686;2023-02-01T15:32:40;99492.91;;;4.02;57.88
63343;BME280;49465;57.664;39.686;2023-02-01T15:41:15;99484.63;;;4.29;56.71
63343;BME280;49465;57.664;39.686;2023-02-01T15:46:18;99500.31;;;3.92;57.32
63343;BME280;49465;57.664;39.686;2023-02-01T15:48:51;99496.56;;;3.81;57.21